sensor_id;sensor_type;location;lat;lon;timestamp;P1;durP1;ratioP1;P2;durP2;ratioP2
7669;SDS011;3877;42.562;27.636;2023-06-26T00:01:57;7.45;;;5.03;;
7669;SDS011;3877;42.562;27.636;2023-06-26T00:04:24;9.50;;;5.63;;
7669;SDS011;3877;42.562;27.636;2023-06-26T00:06:51;7.90;;;5.53;;
7669;SDS011;3877;42.562;27.636;2023-06-26T00:09:20;9.82;;;5.47;;
7669;SDS011;3877;42.562;27.636;2023-06-26T00:11:47;7.32;;;5.60;;
7669;SDS011;3877;42.562;27.636;2023-06-26T00:14:14;9.10;;;5.70;;
7669;SDS011;3877;42.562;27.636;2023-06-26T00:16:41;9.52;;;6.32;;
7669;SDS011;3877;42.562;27.636;2023-06-26T00:19:08;8.55;;;6.30;;
7669;SDS011;3877;42.562;27.636;2023-06-26T00:21:36;9.02;;;6.05;;
7669;SDS011;3877;42.562;27.636;2023-06-26T00:24:03;8.30;;;5.90;;
7669;SDS011;3877;42.562;27.636;2023-06-26T00:26:32;10.07;;;5.80;;
7669;SDS011;3877;42.562;27.636;2023-06-26T00:28:59;10.73;;;5.90;;
7669;SDS011;3877;42.562;27.636;2023-06-26T00:31:27;8.55;;;6.00;;
7669;SDS011;3877;42.562;27.636;2023-06-26T00:33:54;7.50;;;5.63;;
7669;SDS011;3877;42.562;27.636;2023-06-26T00:36:21;10.45;;;6.30;;
7669;SDS011;3877;42.562;27.636;2023-06-26T00:38:49;9.23;;;6.05;;
7669;SDS011;3877;42.562;27.636;2023-06-26T00:41:16;8.13;;;6.05;;
7669;SDS011;3877;42.562;27.636;2023-06-26T00:43:45;8.68;;;5.97;;
7669;SDS011;3877;42.562;27.636;2023-06-26T00:46:13;11.30;;;6.65;;
7669;SDS011;3877;42.562;27.636;2023-06-26T00:48:41;8.48;;;5.93;;
7669;SDS011;3877;42.562;27.636;2023-06-26T00:51:09;8.43;;;6.20;;
7669;SDS011;3877;42.562;27.636;2023-06-26T00:53:36;14.57;;;6.63;;
7669;SDS011;3877;42.562;27.636;2023-06-26T00:56:04;9.57;;;6.30;;
7669;SDS011;3877;42.562;27.636;2023-06-26T00:58:32;7.35;;;6.03;;
7669;SDS011;3877;42.562;27.636;2023-06-26T01:01:01;11.35;;;6.68;;
7669;SDS011;3877;42.562;27.636;2023-06-26T01:03:30;9.15;;;6.43;;
7669;SDS011;3877;42.562;27.636;2023-06-26T01:05:59;11.77;;;7.00;;
7669;SDS011;3877;42.562;27.636;2023-06-26T01:08:27;9.90;;;7.10;;
7669;SDS011;3877;42.562;27.636;2023-06-26T01:10:55;11.75;;;7.35;;
7669;SDS011;3877;42.562;27.636;2023-06-26T01:13:22;9.45;;;6.82;;
7669;SDS011;3877;42.562;27.636;2023-06-26T01:15:50;12.90;;;6.93;;
7669;SDS011;3877;42.562;27.636;2023-06-26T01:18:19;12.65;;;6.82;;
7669;SDS011;3877;42.562;27.636;2023-06-26T01:20:47;8.20;;;6.50;;
7669;SDS011;3877;42.562;27.636;2023-06-26T01:23:16;8.88;;;6.55;;
7669;SDS011;3877;42.562;27.636;2023-06-26T01:25:55;9.15;;;6.65;;
7669;SDS011;3877;42.562;27.636;2023-06-26T01:28:28;12.75;;;7.07;;
7669;SDS011;3877;42.562;27.636;2023-06-26T01:30:56;8.13;;;6.35;;
7669;SDS011;3877;42.562;27.636;2023-06-26T01:33:24;10.50;;;7.03;;
7669;SDS011;3877;42.562;27.636;2023-06-26T01:35:52;13.23;;;7.00;;
7669;SDS011;3877;42.562;27.636;2023-06-26T01:38:20;9.98;;;6.95;;
7669;SDS011;3877;42.562;27.636;2023-06-26T01:40:48;9.35;;;6.60;;
7669;SDS011;3877;42.562;27.636;2023-06-26T01:43:19;7.20;;;6.50;;
7669;SDS011;3877;42.562;27.636;2023-06-26T01:45:53;9.75;;;7.20;;
7669;SDS011;3877;42.562;27.636;2023-06-26T01:48:25;9.90;;;6.68;;
7669;SDS011;3877;42.562;27.636;2023-06-26T01:50:57;8.70;;;6.65;;
7669;SDS011;3877;42.562;27.636;2023-06-26T01:53:27;12.05;;;7.50;;
7669;SDS011;3877;42.562;27.636;2023-06-26T01:56:04;9.43;;;6.80;;
7669;SDS011;3877;42.562;27.636;2023-06-26T01:58:35;12.40;;;7.20;;
7669;SDS011;3877;42.562;27.636;2023-06-26T02:01:08;11.40;;;7.70;;
7669;SDS011;3877;42.562;27.636;2023-06-26T02:03:36;16.33;;;7.13;;
7669;SDS011;3877;42.562;27.636;2023-06-26T02:06:03;10.10;;;7.05;;
7669;SDS011;3877;42.562;27.636;2023-06-26T02:08:31;10.52;;;7.65;;
7669;SDS011;3877;42.562;27.636;2023-06-26T02:10:58;10.02;;;7.07;;
7669;SDS011;3877;42.562;27.636;2023-06-26T02:13:25;9.23;;;6.68;;
7669;SDS011;3877;42.562;27.636;2023-06-26T02:15:52;10.00;;;7.43;;
7669;SDS011;3877;42.562;27.636;2023-06-26T02:18:21;10.63;;;7.22;;
7669;SDS011;3877;42.562;27.636;2023-06-26T02:20:49;9.45;;;7.22;;
7669;SDS011;3877;42.562;27.636;2023-06-26T02:23:16;10.40;;;7.32;;
7669;SDS011;3877;42.562;27.636;2023-06-26T02:25:44;11.85;;;8.00;;
7669;SDS011;3877;42.562;27.636;2023-06-26T02:28:11;9.00;;;7.30;;
7669;SDS011;3877;42.562;27.636;2023-06-26T02:30:38;12.18;;;7.93;;
7669;SDS011;3877;42.562;27.636;2023-06-26T02:33:06;10.52;;;7.65;;
7669;SDS011;3877;42.562;27.636;2023-06-26T02:35:34;10.40;;;7.80;;
7669;SDS011;3877;42.562;27.636;2023-06-26T02:38:01;8.57;;;7.47;;
7669;SDS011;3877;42.562;27.636;2023-06-26T02:40:30;10.32;;;7.63;;
7669;SDS011;3877;42.562;27.636;2023-06-26T02:42:57;12.63;;;7.80;;
7669;SDS011;3877;42.562;27.636;2023-06-26T02:45:25;9.23;;;7.35;;
7669;SDS011;3877;42.562;27.636;2023-06-26T02:47:52;11.93;;;7.72;;
7669;SDS011;3877;42.562;27.636;2023-06-26T02:50:19;8.15;;;7.35;;
7669;SDS011;3877;42.562;27.636;2023-06-26T02:52:48;10.32;;;8.18;;
7669;SDS011;3877;42.562;27.636;2023-06-26T02:55:17;11.05;;;7.43;;
7669;SDS011;3877;42.562;27.636;2023-06-26T02:57:45;11.50;;;7.53;;
7669;SDS011;3877;42.562;27.636;2023-06-26T03:00:13;10.43;;;7.47;;
7669;SDS011;3877;42.562;27.636;2023-06-26T03:02:40;10.68;;;7.82;;
7669;SDS011;3877;42.562;27.636;2023-06-26T03:05:08;11.55;;;7.45;;
7669;SDS011;3877;42.562;27.636;2023-06-26T03:07:35;9.35;;;7.45;;
7669;SDS011;3877;42.562;27.636;2023-06-26T03:10:04;12.30;;;7.78;;
7669;SDS011;3877;42.562;27.636;2023-06-26T03:12:32;11.18;;;6.90;;
7669;SDS011;3877;42.562;27.636;2023-06-26T03:14:59;9.50;;;7.68;;
7669;SDS011;3877;42.562;27.636;2023-06-26T03:17:26;10.73;;;8.15;;
7669;SDS011;3877;42.562;27.636;2023-06-26T03:19:53;9.18;;;7.75;;
7669;SDS011;3877;42.562;27.636;2023-06-26T03:22:20;12.25;;;7.07;;
7669;SDS011;3877;42.562;27.636;2023-06-26T03:24:48;12.73;;;7.22;;
7669;SDS011;3877;42.562;27.636;2023-06-26T03:27:17;10.60;;;7.25;;
7669;SDS011;3877;42.562;27.636;2023-06-26T03:29:44;10.55;;;7.45;;
7669;SDS011;3877;42.562;27.636;2023-06-26T03:32:11;11.52;;;7.80;;
7669;SDS011;3877;42.562;27.636;2023-06-26T03:34:38;12.57;;;7.75;;
7669;SDS011;3877;42.562;27.636;2023-06-26T03:37:05;11.07;;;7.43;;
7669;SDS011;3877;42.562;27.636;2023-06-26T03:39:33;9.02;;;7.63;;
7669;SDS011;3877;42.562;27.636;2023-06-26T03:42:00;9.32;;;7.60;;
7669;SDS011;3877;42.562;27.636;2023-06-26T03:44:28;8.32;;;7.45;;
7669;SDS011;3877;42.562;27.636;2023-06-26T03:46:56;12.32;;;8.25;;
7669;SDS011;3877;42.562;27.636;2023-06-26T03:49:23;8.00;;;7.10;;
7669;SDS011;3877;42.562;27.636;2023-06-26T03:51:50;13.32;;;7.72;;
7669;SDS011;3877;42.562;27.636;2023-06-26T03:54:18;11.48;;;7.80;;
7669;SDS011;3877;42.562;27.636;2023-06-26T03:56:45;10.68;;;7.95;;
7669;SDS011;3877;42.562;27.636;2023-06-26T03:59:12;11.30;;;8.15;;
7669;SDS011;3877;42.562;27.636;2023-06-26T04:01:41;10.02;;;7.82;;
7669;SDS011;3877;42.562;27.636;2023-06-26T04:04:08;11.65;;;7.70;;
7669;SDS011;3877;42.562;27.636;2023-06-26T04:06:36;14.13;;;7.90;;
7669;SDS011;3877;42.562;27.636;2023-06-26T04:09:03;13.60;;;8.20;;
7669;SDS011;3877;42.562;27.636;2023-06-26T04:11:30;11.82;;;8.10;;
7669;SDS011;3877;42.562;27.636;2023-06-26T04:13:58;11.77;;;8.05;;
7669;SDS011;3877;42.562;27.636;2023-06-26T04:16:25;11.43;;;8.50;;
7669;SDS011;3877;42.562;27.636;2023-06-26T04:18:54;11.50;;;8.45;;
7669;SDS011;3877;42.562;27.636;2023-06-26T04:21:22;12.23;;;8.10;;
7669;SDS011;3877;42.562;27.636;2023-06-26T04:23:50;10.90;;;8.48;;
7669;SDS011;3877;42.562;27.636;2023-06-26T04:26:17;11.25;;;8.13;;
7669;SDS011;3877;42.562;27.636;2023-06-26T04:28:45;11.65;;;7.80;;
7669;SDS011;3877;42.562;27.636;2023-06-26T04:31:12;15.48;;;8.55;;
7669;SDS011;3877;42.562;27.636;2023-06-26T04:33:39;14.30;;;9.18;;
7669;SDS011;3877;42.562;27.636;2023-06-26T04:36:08;13.85;;;8.90;;
7669;SDS011;3877;42.562;27.636;2023-06-26T04:38:36;10.45;;;8.75;;
7669;SDS011;3877;42.562;27.636;2023-06-26T04:41:03;12.93;;;8.82;;
7669;SDS011;3877;42.562;27.636;2023-06-26T04:43:31;12.90;;;9.38;;
7669;SDS011;3877;42.562;27.636;2023-06-26T04:45:58;11.45;;;8.27;;
7669;SDS011;3877;42.562;27.636;2023-06-26T04:48:25;12.32;;;8.95;;
7669;SDS011;3877;42.562;27.636;2023-06-26T04:50:54;11.75;;;9.45;;
7669;SDS011;3877;42.562;27.636;2023-06-26T04:53:23;14.02;;;9.05;;
7669;SDS011;3877;42.562;27.636;2023-06-26T04:55:50;11.88;;;8.57;;
7669;SDS011;3877;42.562;27.636;2023-06-26T04:58:17;10.48;;;7.85;;
7669;SDS011;3877;42.562;27.636;2023-06-26T05:00:45;10.88;;;8.65;;
7669;SDS011;3877;42.562;27.636;2023-06-26T05:03:12;12.23;;;8.65;;
7669;SDS011;3877;42.562;27.636;2023-06-26T05:05:42;11.43;;;8.20;;
7669;SDS011;3877;42.562;27.636;2023-06-26T05:08:15;12.25;;;8.25;;
7669;SDS011;3877;42.562;27.636;2023-06-26T05:10:45;10.98;;;8.23;;
7669;SDS011;3877;42.562;27.636;2023-06-26T05:13:13;10.18;;;8.23;;
7669;SDS011;3877;42.562;27.636;2023-06-26T05:15:43;15.05;;;8.57;;
7669;SDS011;3877;42.562;27.636;2023-06-26T05:18:10;11.45;;;8.30;;
7669;SDS011;3877;42.562;27.636;2023-06-26T05:20:38;11.52;;;8.73;;
7669;SDS011;3877;42.562;27.636;2023-06-26T05:23:05;10.07;;;8.38;;
7669;SDS011;3877;42.562;27.636;2023-06-26T05:25:33;11.70;;;8.40;;
7669;SDS011;3877;42.562;27.636;2023-06-26T05:28:03;13.55;;;9.27;;
7669;SDS011;3877;42.562;27.636;2023-06-26T05:30:31;14.35;;;9.43;;
7669;SDS011;3877;42.562;27.636;2023-06-26T05:33:01;10.65;;;9.05;;
7669;SDS011;3877;42.562;27.636;2023-06-26T05:35:29;12.43;;;9.38;;
7669;SDS011;3877;42.562;27.636;2023-06-26T05:37:57;15.18;;;8.52;;
7669;SDS011;3877;42.562;27.636;2023-06-26T05:40:25;12.73;;;8.25;;
7669;SDS011;3877;42.562;27.636;2023-06-26T05:42:52;11.88;;;9.18;;
7669;SDS011;3877;42.562;27.636;2023-06-26T05:45:22;10.18;;;8.55;;
7669;SDS011;3877;42.562;27.636;2023-06-26T05:47:49;12.98;;;9.20;;
7669;SDS011;3877;42.562;27.636;2023-06-26T05:50:17;11.15;;;9.02;;
7669;SDS011;3877;42.562;27.636;2023-06-26T05:52:45;15.90;;;9.05;;
7669;SDS011;3877;42.562;27.636;2023-06-26T05:55:13;12.70;;;8.75;;
7669;SDS011;3877;42.562;27.636;2023-06-26T05:57:41;11.98;;;8.43;;
7669;SDS011;3877;42.562;27.636;2023-06-26T06:00:09;15.95;;;9.13;;
7669;SDS011;3877;42.562;27.636;2023-06-26T06:02:38;11.63;;;8.32;;
7669;SDS011;3877;42.562;27.636;2023-06-26T06:05:07;11.60;;;8.45;;
7669;SDS011;3877;42.562;27.636;2023-06-26T06:07:35;11.85;;;8.95;;
7669;SDS011;3877;42.562;27.636;2023-06-26T06:10:02;14.75;;;9.50;;
7669;SDS011;3877;42.562;27.636;2023-06-26T06:12:30;10.90;;;9.00;;
7669;SDS011;3877;42.562;27.636;2023-06-26T06:14:57;13.20;;;9.70;;
7669;SDS011;3877;42.562;27.636;2023-06-26T06:17:25;16.92;;;9.60;;
7669;SDS011;3877;42.562;27.636;2023-06-26T06:19:53;12.38;;;9.07;;
7669;SDS011;3877;42.562;27.636;2023-06-26T06:22:22;16.13;;;9.18;;
7669;SDS011;3877;42.562;27.636;2023-06-26T06:24:49;11.57;;;8.57;;
7669;SDS011;3877;42.562;27.636;2023-06-26T06:27:17;15.90;;;9.55;;
7669;SDS011;3877;42.562;27.636;2023-06-26T06:29:44;12.65;;;8.77;;
7669;SDS011;3877;42.562;27.636;2023-06-26T06:32:12;19.17;;;9.20;;
7669;SDS011;3877;42.562;27.636;2023-06-26T06:34:39;14.20;;;8.82;;
7669;SDS011;3877;42.562;27.636;2023-06-26T06:37:07;12.95;;;9.13;;
7669;SDS011;3877;42.562;27.636;2023-06-26T06:39:35;12.27;;;8.70;;
7669;SDS011;3877;42.562;27.636;2023-06-26T06:42:02;14.85;;;8.73;;
7669;SDS011;3877;42.562;27.636;2023-06-26T06:44:29;14.77;;;8.90;;
7669;SDS011;3877;42.562;27.636;2023-06-26T06:46:57;13.68;;;9.25;;
7669;SDS011;3877;42.562;27.636;2023-06-26T06:49:24;9.43;;;8.48;;
7669;SDS011;3877;42.562;27.636;2023-06-26T06:51:51;11.27;;;8.32;;
7669;SDS011;3877;42.562;27.636;2023-06-26T06:54:19;14.13;;;9.10;;
7669;SDS011;3877;42.562;27.636;2023-06-26T06:56:47;14.00;;;8.73;;
7669;SDS011;3877;42.562;27.636;2023-06-26T06:59:14;17.55;;;9.63;;
7669;SDS011;3877;42.562;27.636;2023-06-26T07:01:41;17.45;;;9.23;;
7669;SDS011;3877;42.562;27.636;2023-06-26T07:04:08;12.35;;;9.25;;
7669;SDS011;3877;42.562;27.636;2023-06-26T07:06:36;14.57;;;9.50;;
7669;SDS011;3877;42.562;27.636;2023-06-26T07:09:03;15.05;;;9.93;;
7669;SDS011;3877;42.562;27.636;2023-06-26T07:11:32;15.88;;;9.70;;
7669;SDS011;3877;42.562;27.636;2023-06-26T07:13:59;13.52;;;9.60;;
7669;SDS011;3877;42.562;27.636;2023-06-26T07:16:26;19.35;;;9.68;;
7669;SDS011;3877;42.562;27.636;2023-06-26T07:18:54;13.55;;;9.25;;
7669;SDS011;3877;42.562;27.636;2023-06-26T07:21:21;17.27;;;9.50;;
7669;SDS011;3877;42.562;27.636;2023-06-26T07:23:48;17.25;;;8.93;;
7669;SDS011;3877;42.562;27.636;2023-06-26T07:26:15;11.13;;;9.02;;
7669;SDS011;3877;42.562;27.636;2023-06-26T07:28:44;14.95;;;9.60;;
7669;SDS011;3877;42.562;27.636;2023-06-26T07:31:11;14.07;;;8.95;;
7669;SDS011;3877;42.562;27.636;2023-06-26T07:33:38;13.95;;;8.93;;
7669;SDS011;3877;42.562;27.636;2023-06-26T07:36:05;18.10;;;9.10;;
7669;SDS011;3877;42.562;27.636;2023-06-26T07:38:32;12.32;;;7.60;;
7669;SDS011;3877;42.562;27.636;2023-06-26T07:41:00;15.57;;;8.13;;
7669;SDS011;3877;42.562;27.636;2023-06-26T07:43:27;10.20;;;7.95;;
7669;SDS011;3877;42.562;27.636;2023-06-26T07:45:56;13.35;;;8.52;;
7669;SDS011;3877;42.562;27.636;2023-06-26T07:48:24;11.57;;;8.10;;
7669;SDS011;3877;42.562;27.636;2023-06-26T07:50:51;10.70;;;7.72;;
7669;SDS011;3877;42.562;27.636;2023-06-26T07:53:18;10.70;;;7.78;;
7669;SDS011;3877;42.562;27.636;2023-06-26T07:55:46;14.35;;;8.82;;
7669;SDS011;3877;42.562;27.636;2023-06-26T07:58:13;15.93;;;9.00;;
7669;SDS011;3877;42.562;27.636;2023-06-26T08:00:40;14.90;;;9.10;;
7669;SDS011;3877;42.562;27.636;2023-06-26T08:03:09;18.40;;;10.32;;
7669;SDS011;3877;42.562;27.636;2023-06-26T08:05:36;43.40;;;12.18;;
7669;SDS011;3877;42.562;27.636;2023-06-26T08:08:03;28.42;;;10.27;;
7669;SDS011;3877;42.562;27.636;2023-06-26T08:10:32;30.25;;;11.07;;
7669;SDS011;3877;42.562;27.636;2023-06-26T08:12:59;45.53;;;12.75;;
7669;SDS011;3877;42.562;27.636;2023-06-26T08:15:26;37.50;;;13.07;;
7669;SDS011;3877;42.562;27.636;2023-06-26T08:17:53;57.22;;;16.42;;
7669;SDS011;3877;42.562;27.636;2023-06-26T08:20:22;51.78;;;16.45;;
7669;SDS011;3877;42.562;27.636;2023-06-26T08:22:49;37.53;;;16.25;;
7669;SDS011;3877;42.562;27.636;2023-06-26T08:25:17;45.50;;;17.10;;
7669;SDS011;3877;42.562;27.636;2023-06-26T08:27:45;32.10;;;15.98;;
7669;SDS011;3877;42.562;27.636;2023-06-26T08:30:13;58.13;;;17.38;;
7669;SDS011;3877;42.562;27.636;2023-06-26T08:32:40;34.63;;;16.20;;
7669;SDS011;3877;42.562;27.636;2023-06-26T08:35:07;33.75;;;17.48;;
7669;SDS011;3877;42.562;27.636;2023-06-26T08:37:37;32.33;;;15.85;;
7669;SDS011;3877;42.562;27.636;2023-06-26T08:40:05;31.65;;;15.88;;
7669;SDS011;3877;42.562;27.636;2023-06-26T08:42:34;31.10;;;18.25;;
7669;SDS011;3877;42.562;27.636;2023-06-26T08:45:01;32.08;;;17.00;;
7669;SDS011;3877;42.562;27.636;2023-06-26T08:47:29;35.55;;;17.58;;
7669;SDS011;3877;42.562;27.636;2023-06-26T08:50:01;28.48;;;13.10;;
7669;SDS011;3877;42.562;27.636;2023-06-26T08:52:35;27.80;;;12.80;;
7669;SDS011;3877;42.562;27.636;2023-06-26T08:55:10;20.60;;;9.75;;
7669;SDS011;3877;42.562;27.636;2023-06-26T08:57:38;17.10;;;8.38;;
7669;SDS011;3877;42.562;27.636;2023-06-26T09:00:07;15.48;;;7.15;;
7669;SDS011;3877;42.562;27.636;2023-06-26T09:02:35;17.35;;;7.15;;
7669;SDS011;3877;42.562;27.636;2023-06-26T09:05:03;25.42;;;7.57;;
7669;SDS011;3877;42.562;27.636;2023-06-26T09:07:30;13.95;;;8.07;;
7669;SDS011;3877;42.562;27.636;2023-06-26T09:09:59;23.50;;;8.95;;
7669;SDS011;3877;42.562;27.636;2023-06-26T09:12:26;22.25;;;8.82;;
7669;SDS011;3877;42.562;27.636;2023-06-26T09:14:54;17.67;;;8.88;;
7669;SDS011;3877;42.562;27.636;2023-06-26T09:17:24;18.42;;;8.90;;
7669;SDS011;3877;42.562;27.636;2023-06-26T09:19:52;19.02;;;8.55;;
7669;SDS011;3877;42.562;27.636;2023-06-26T09:22:20;13.20;;;8.20;;
7669;SDS011;3877;42.562;27.636;2023-06-26T09:24:48;17.20;;;9.13;;
7669;SDS011;3877;42.562;27.636;2023-06-26T09:27:16;16.50;;;9.10;;
7669;SDS011;3877;42.562;27.636;2023-06-26T09:29:45;14.35;;;8.57;;
7669;SDS011;3877;42.562;27.636;2023-06-26T09:32:13;15.93;;;8.80;;
7669;SDS011;3877;42.562;27.636;2023-06-26T09:34:41;12.82;;;9.45;;
7669;SDS011;3877;42.562;27.636;2023-06-26T09:37:11;15.77;;;9.25;;
7669;SDS011;3877;42.562;27.636;2023-06-26T09:39:38;12.30;;;9.35;;
7669;SDS011;3877;42.562;27.636;2023-06-26T09:42:06;14.60;;;9.15;;
7669;SDS011;3877;42.562;27.636;2023-06-26T09:44:35;14.40;;;8.05;;
7669;SDS011;3877;42.562;27.636;2023-06-26T09:47:02;11.40;;;6.90;;
7669;SDS011;3877;42.562;27.636;2023-06-26T09:49:30;10.05;;;6.80;;
7669;SDS011;3877;42.562;27.636;2023-06-26T09:51:59;12.38;;;6.63;;
7669;SDS011;3877;42.562;27.636;2023-06-26T09:54:28;12.63;;;7.03;;
7669;SDS011;3877;42.562;27.636;2023-06-26T09:57:06;10.02;;;7.07;;
7669;SDS011;3877;42.562;27.636;2023-06-26T09:59:35;10.05;;;7.85;;
7669;SDS011;3877;42.562;27.636;2023-06-26T10:02:03;13.88;;;7.78;;
7669;SDS011;3877;42.562;27.636;2023-06-26T10:04:30;13.48;;;8.43;;
7669;SDS011;3877;42.562;27.636;2023-06-26T10:06:58;12.05;;;8.88;;
7669;SDS011;3877;42.562;27.636;2023-06-26T10:09:29;14.35;;;10.00;;
7669;SDS011;3877;42.562;27.636;2023-06-26T10:11:57;18.90;;;10.32;;
7669;SDS011;3877;42.562;27.636;2023-06-26T10:14:32;18.98;;;9.75;;
7669;SDS011;3877;42.562;27.636;2023-06-26T10:17:03;17.38;;;9.48;;
7669;SDS011;3877;42.562;27.636;2023-06-26T10:19:36;21.00;;;9.55;;
7669;SDS011;3877;42.562;27.636;2023-06-26T10:22:06;16.90;;;9.50;;
7669;SDS011;3877;42.562;27.636;2023-06-26T10:24:35;19.20;;;9.80;;
7669;SDS011;3877;42.562;27.636;2023-06-26T10:27:04;17.02;;;10.18;;
7669;SDS011;3877;42.562;27.636;2023-06-26T10:29:35;17.83;;;10.77;;
7669;SDS011;3877;42.562;27.636;2023-06-26T10:32:04;16.35;;;10.57;;
7669;SDS011;3877;42.562;27.636;2023-06-26T10:34:33;17.63;;;10.05;;
7669;SDS011;3877;42.562;27.636;2023-06-26T10:37:01;14.93;;;10.65;;
7669;SDS011;3877;42.562;27.636;2023-06-26T10:39:36;16.55;;;10.25;;
7669;SDS011;3877;42.562;27.636;2023-06-26T10:42:14;21.98;;;11.30;;
7669;SDS011;3877;42.562;27.636;2023-06-26T10:44:42;16.45;;;11.25;;
7669;SDS011;3877;42.562;27.636;2023-06-26T10:47:12;20.05;;;11.10;;
7669;SDS011;3877;42.562;27.636;2023-06-26T10:49:56;17.52;;;11.13;;
7669;SDS011;3877;42.562;27.636;2023-06-26T10:52:25;17.42;;;10.98;;
7669;SDS011;3877;42.562;27.636;2023-06-26T10:54:54;18.77;;;11.18;;
7669;SDS011;3877;42.562;27.636;2023-06-26T10:57:23;17.73;;;11.02;;
7669;SDS011;3877;42.562;27.636;2023-06-26T11:02:48;16.17;;;10.55;;
7669;SDS011;3877;42.562;27.636;2023-06-26T11:08:04;16.92;;;10.38;;
7669;SDS011;3877;42.562;27.636;2023-06-26T11:13:26;21.83;;;9.60;;
7669;SDS011;3877;42.562;27.636;2023-06-26T11:22:40;18.13;;;8.80;;
7669;SDS011;3877;42.562;27.636;2023-06-26T11:25:09;14.35;;;9.02;;
7669;SDS011;3877;42.562;27.636;2023-06-26T11:27:40;16.05;;;8.82;;
7669;SDS011;3877;42.562;27.636;2023-06-26T11:30:08;14.10;;;9.55;;
7669;SDS011;3877;42.562;27.636;2023-06-26T11:32:36;17.92;;;9.05;;
7669;SDS011;3877;42.562;27.636;2023-06-26T11:35:04;16.05;;;8.63;;
7669;SDS011;3877;42.562;27.636;2023-06-26T11:37:32;15.05;;;8.93;;
7669;SDS011;3877;42.562;27.636;2023-06-26T11:40:04;12.02;;;8.55;;
7669;SDS011;3877;42.562;27.636;2023-06-26T11:42:43;16.52;;;9.20;;
7669;SDS011;3877;42.562;27.636;2023-06-26T11:45:11;16.42;;;8.75;;
7669;SDS011;3877;42.562;27.636;2023-06-26T11:47:39;15.10;;;9.10;;
7669;SDS011;3877;42.562;27.636;2023-06-26T11:50:14;14.55;;;9.13;;
7669;SDS011;3877;42.562;27.636;2023-06-26T11:52:42;16.13;;;8.77;;
7669;SDS011;3877;42.562;27.636;2023-06-26T11:55:10;15.68;;;8.40;;
7669;SDS011;3877;42.562;27.636;2023-06-26T11:57:38;16.23;;;8.55;;
7669;SDS011;3877;42.562;27.636;2023-06-26T12:00:11;13.07;;;8.73;;
7669;SDS011;3877;42.562;27.636;2023-06-26T12:02:39;12.15;;;7.85;;
7669;SDS011;3877;42.562;27.636;2023-06-26T12:05:07;14.32;;;8.25;;
7669;SDS011;3877;42.562;27.636;2023-06-26T12:07:35;16.48;;;8.32;;
7669;SDS011;3877;42.562;27.636;2023-06-26T12:10:02;12.98;;;8.43;;
7669;SDS011;3877;42.562;27.636;2023-06-26T12:12:33;12.38;;;8.27;;
7669;SDS011;3877;42.562;27.636;2023-06-26T12:15:01;15.60;;;8.77;;
7669;SDS011;3877;42.562;27.636;2023-06-26T12:17:28;15.05;;;8.30;;
7669;SDS011;3877;42.562;27.636;2023-06-26T12:19:56;14.27;;;8.68;;
7669;SDS011;3877;42.562;27.636;2023-06-26T12:22:23;15.98;;;9.10;;
7669;SDS011;3877;42.562;27.636;2023-06-26T12:24:50;15.77;;;8.77;;
7669;SDS011;3877;42.562;27.636;2023-06-26T12:27:18;11.30;;;8.70;;
7669;SDS011;3877;42.562;27.636;2023-06-26T12:29:49;15.52;;;9.68;;
7669;SDS011;3877;42.562;27.636;2023-06-26T12:32:18;14.93;;;8.55;;
7669;SDS011;3877;42.562;27.636;2023-06-26T12:34:47;12.68;;;9.30;;
7669;SDS011;3877;42.562;27.636;2023-06-26T12:37:16;16.90;;;8.77;;
7669;SDS011;3877;42.562;27.636;2023-06-26T12:39:47;12.52;;;8.55;;
7669;SDS011;3877;42.562;27.636;2023-06-26T12:42:16;11.80;;;8.63;;
7669;SDS011;3877;42.562;27.636;2023-06-26T12:44:45;11.30;;;8.57;;
7669;SDS011;3877;42.562;27.636;2023-06-26T12:47:14;13.60;;;9.00;;
7669;SDS011;3877;42.562;27.636;2023-06-26T12:49:43;10.77;;;7.40;;
7669;SDS011;3877;42.562;27.636;2023-06-26T12:52:12;11.75;;;7.80;;
7669;SDS011;3877;42.562;27.636;2023-06-26T12:54:40;10.98;;;8.82;;
7669;SDS011;3877;42.562;27.636;2023-06-26T12:57:08;12.18;;;8.27;;
7669;SDS011;3877;42.562;27.636;2023-06-26T12:59:36;10.75;;;9.15;;
7669;SDS011;3877;42.562;27.636;2023-06-26T13:02:05;11.98;;;8.82;;
7669;SDS011;3877;42.562;27.636;2023-06-26T13:04:34;10.25;;;8.27;;
7669;SDS011;3877;42.562;27.636;2023-06-26T13:07:05;11.80;;;8.85;;
7669;SDS011;3877;42.562;27.636;2023-06-26T13:09:33;10.23;;;9.10;;
7669;SDS011;3877;42.562;27.636;2023-06-26T13:12:00;15.38;;;9.75;;
7669;SDS011;3877;42.562;27.636;2023-06-26T13:14:28;11.25;;;9.38;;
7669;SDS011;3877;42.562;27.636;2023-06-26T13:16:56;11.38;;;9.48;;
7669;SDS011;3877;42.562;27.636;2023-06-26T13:19:23;14.98;;;8.25;;
7669;SDS011;3877;42.562;27.636;2023-06-26T13:21:52;10.13;;;8.85;;
7669;SDS011;3877;42.562;27.636;2023-06-26T13:24:19;13.07;;;9.57;;
7669;SDS011;3877;42.562;27.636;2023-06-26T13:26:46;14.13;;;9.00;;
7669;SDS011;3877;42.562;27.636;2023-06-26T13:29:14;13.57;;;9.07;;
7669;SDS011;3877;42.562;27.636;2023-06-26T13:31:41;11.95;;;8.93;;
7669;SDS011;3877;42.562;27.636;2023-06-26T13:34:08;9.48;;;7.93;;
7669;SDS011;3877;42.562;27.636;2023-06-26T13:36:46;13.38;;;8.57;;
7669;SDS011;3877;42.562;27.636;2023-06-26T13:39:14;14.02;;;8.77;;
7669;SDS011;3877;42.562;27.636;2023-06-26T13:41:41;13.35;;;9.23;;
7669;SDS011;3877;42.562;27.636;2023-06-26T13:44:09;12.05;;;8.07;;
7669;SDS011;3877;42.562;27.636;2023-06-26T13:46:36;20.50;;;8.43;;
7669;SDS011;3877;42.562;27.636;2023-06-26T13:49:03;12.50;;;8.23;;
7669;SDS011;3877;42.562;27.636;2023-06-26T13:51:30;18.17;;;8.93;;
7669;SDS011;3877;42.562;27.636;2023-06-26T13:53:58;12.35;;;8.18;;
7669;SDS011;3877;42.562;27.636;2023-06-26T13:56:26;28.40;;;8.52;;
7669;SDS011;3877;42.562;27.636;2023-06-26T13:58:55;10.00;;;7.70;;
7669;SDS011;3877;42.562;27.636;2023-06-26T14:01:23;16.52;;;7.95;;
7669;SDS011;3877;42.562;27.636;2023-06-26T14:03:50;13.48;;;8.13;;
7669;SDS011;3877;42.562;27.636;2023-06-26T14:06:18;15.00;;;8.18;;
7669;SDS011;3877;42.562;27.636;2023-06-26T14:08:45;16.33;;;8.85;;
7669;SDS011;3877;42.562;27.636;2023-06-26T14:11:12;11.77;;;8.25;;
7669;SDS011;3877;42.562;27.636;2023-06-26T14:13:47;10.45;;;7.65;;
7669;SDS011;3877;42.562;27.636;2023-06-26T14:16:14;15.57;;;8.75;;
7669;SDS011;3877;42.562;27.636;2023-06-26T14:18:43;14.07;;;8.30;;
7669;SDS011;3877;42.562;27.636;2023-06-26T14:21:10;14.98;;;9.05;;
7669;SDS011;3877;42.562;27.636;2023-06-26T14:23:37;13.43;;;8.40;;
7669;SDS011;3877;42.562;27.636;2023-06-26T14:26:06;15.52;;;7.85;;
7669;SDS011;3877;42.562;27.636;2023-06-26T14:28:34;10.32;;;7.93;;
7669;SDS011;3877;42.562;27.636;2023-06-26T14:31:02;9.77;;;7.30;;
7669;SDS011;3877;42.562;27.636;2023-06-26T14:33:30;9.13;;;7.32;;
7669;SDS011;3877;42.562;27.636;2023-06-26T14:35:57;10.02;;;8.13;;
7669;SDS011;3877;42.562;27.636;2023-06-26T14:38:24;12.98;;;7.90;;
7669;SDS011;3877;42.562;27.636;2023-06-26T14:40:51;12.73;;;9.82;;
7669;SDS011;3877;42.562;27.636;2023-06-26T14:43:18;12.43;;;7.43;;
7669;SDS011;3877;42.562;27.636;2023-06-26T14:45:46;14.13;;;7.82;;
7669;SDS011;3877;42.562;27.636;2023-06-26T14:48:14;10.82;;;7.40;;
7669;SDS011;3877;42.562;27.636;2023-06-26T14:53:30;15.48;;;8.65;;
7669;SDS011;3877;42.562;27.636;2023-06-26T14:55:57;13.48;;;7.90;;
7669;SDS011;3877;42.562;27.636;2023-06-26T14:58:24;8.45;;;7.25;;
7669;SDS011;3877;42.562;27.636;2023-06-26T15:00:52;14.68;;;8.10;;
7669;SDS011;3877;42.562;27.636;2023-06-26T15:03:20;10.73;;;7.28;;
7669;SDS011;3877;42.562;27.636;2023-06-26T15:05:48;10.13;;;7.22;;
7669;SDS011;3877;42.562;27.636;2023-06-26T15:08:15;11.13;;;7.10;;
7669;SDS011;3877;42.562;27.636;2023-06-26T15:10:42;11.30;;;7.18;;
7669;SDS011;3877;42.562;27.636;2023-06-26T15:13:09;19.58;;;7.65;;